Terminal Aerodrome Forecast
Issued by NWS

Home | Current Version | Previous Version | Graphics & Text | Print | Product List | Glossary On
Versions: 1 2 3 4 5 6 7 8 9 10 11 12 13
737
FTUS43 KMPX 021739
TAFRWF
TAF
KRWF 021739Z 0218/0318 23005KT P6SM SKC
     FM030000 VRB04KT P6SM SKC
     FM031000 26007KT P6SM SCT250
     FM031500 28012G19KT P6SM SCT250=

USA.gov is the U.S. government's official web portal to all federal, state and local government web resources and services.